Time;durP1;ratioP1;P1;durP2;ratioP2;P2;SDS_P1;SDS_P2;PMS_P1;PMS_P2;Temp;Humidity;BMP_temperature;BMP_pressure;BME280_temperature;BME280_humidity;BME280_pressure;Samples;Min_cycle;Max_cycle;Signal;HPM_P1;HPM_P2
2024/03/20 00:01:12;;;;;;;;;;;;;;;23.15;51.10;94324.44;4997381;28;6859;-66
2024/03/20 00:03:38;;;;;;;;;;;;;;;23.11;51.14;94327.44;5015524;28;7303;-66
2024/03/20 00:06:18;;;;;;;;;;;;;;;23.11;50.79;94330.19;5019622;28;7036;-59
2024/03/20 00:08:44;;;;;;;;;;;;;;;23.08;50.76;94328.44;5004202;28;7038;-59
2024/03/20 00:11:13;;;;;;;;;;;;;;;23.09;51.23;94329.94;5047261;28;9131;-59
2024/03/20 00:14:28;;;;;;;;;;;;;;;23.07;50.87;94335.16;5064402;28;7062;-59
2024/03/20 00:17:30;;;;;;;;;;;;;;;23.06;51.18;94336.41;5042890;28;9220;-62
2024/03/20 00:20:04;;;;;;;;;;;;;;;22.98;50.77;94329.91;5076222;28;7070;-62
2024/03/20 00:22:52;;;;;;;;;;;;;;;23.00;50.93;94327.41;5057673;28;7297;-62
2024/03/20 00:25:18;;;;;;;;;;;;;;;22.99;50.88;94327.88;5071025;28;7040;-62
2024/03/20 00:28:30;;;;;;;;;;;;;;;22.98;50.88;94329.91;5075474;28;8220;-62
2024/03/20 00:31:09;;;;;;;;;;;;;;;22.95;50.73;94319.91;5031664;28;7481;-62
2024/03/20 00:33:35;;;;;;;;;;;;;;;22.98;50.96;94324.44;5017167;28;9138;-62
2024/03/20 00:36:04;;;;;;;;;;;;;;;22.95;51.11;94319.16;5013743;28;7109;-62
2024/03/20 00:38:41;;;;;;;;;;;;;;;22.96;51.00;94315.19;5012096;28;7160;-62
2024/03/20 00:41:28;;;;;;;;;;;;;;;22.99;51.20;94322.41;5025695;28;9029;-62
2024/03/20 00:44:09;;;;;;;;;;;;;;;22.98;50.89;94327.16;5033891;28;7034;-62
2024/03/20 00:47:01;;;;;;;;;;;;;;;22.98;50.55;94326.41;5027994;28;7283;-62
2024/03/20 00:49:59;;;;;;;;;;;;;;;22.98;50.86;94323.66;5010757;28;7038;-61
2024/03/20 00:52:25;;;;;;;;;;;;;;;22.92;50.56;94320.16;5048435;28;9347;-62
2024/03/20 00:54:51;;;;;;;;;;;;;;;22.87;50.65;94310.69;5046289;28;7089;-62
2024/03/20 00:57:24;;;;;;;;;;;;;;;22.90;50.53;94317.91;5016582;28;7009;-62
2024/03/20 00:59:52;;;;;;;;;;;;;;;22.88;50.36;94320.38;5023197;28;7041;-61
2024/03/20 01:02:49;;;;;;;;;;;;;;;22.94;50.38;94323.16;5020918;28;8626;-62
2024/03/20 01:05:17;;;;;;;;;;;;;;;22.88;50.65;94311.44;5006085;28;8593;-62
2024/03/20 01:07:53;;;;;;;;;;;;;;;22.82;50.61;94300.44;5067983;28;7254;-62
2024/03/20 01:10:38;;;;;;;;;;;;;;;22.92;50.86;94314.69;5083539;28;7680;-62
2024/03/20 01:13:18;;;;;;;;;;;;;;;22.90;50.89;94320.66;5077943;28;7282;-61
2024/03/20 01:15:56;;;;;;;;;;;;;;;22.91;50.84;94313.16;5071829;28;7300;-62
2024/03/20 01:18:24;;;;;;;;;;;;;;;22.85;50.58;94309.66;5075014;28;7033;-62
2024/03/20 01:20:50;;;;;;;;;;;;;;;22.84;50.72;94305.41;5089435;28;7022;-62
2024/03/20 01:23:34;;;;;;;;;;;;;;;22.85;50.64;94310.44;5077128;28;7029;-62
2024/03/20 01:26:21;;;;;;;;;;;;;;;22.80;50.84;94302.91;5085588;28;9215;-62
2024/03/20 01:28:57;;;;;;;;;;;;;;;22.82;50.40;94305.91;5041410;28;7285;-62
2024/03/20 01:31:44;;;;;;;;;;;;;;;22.85;50.59;94304.19;5079631;28;6868;-62
2024/03/20 01:34:12;;;;;;;;;;;;;;;22.84;50.57;94310.91;5056978;28;7274;-62
2024/03/20 01:37:27;;;;;;;;;;;;;;;22.82;50.82;94307.91;5074987;28;7037;-62
2024/03/20 01:40:02;;;;;;;;;;;;;;;22.79;50.51;94295.97;5054509;28;7048;-63
2024/03/20 01:42:55;;;;;;;;;;;;;;;22.81;50.35;94300.94;5053677;28;7580;-63
2024/03/20 01:45:42;;;;;;;;;;;;;;;22.81;50.62;94309.16;5056008;28;7150;-63
2024/03/20 01:48:16;;;;;;;;;;;;;;;22.79;50.45;94304.19;5083178;28;9911;-63
2024/03/20 01:51:04;;;;;;;;;;;;;;;22.73;50.91;94294.44;5053468;28;9440;-59
2024/03/20 01:53:30;;;;;;;;;;;;;;;22.76;50.32;94299.69;5054763;28;7260;-59
2024/03/20 01:56:01;;;;;;;;;;;;;;;22.78;50.44;94296.44;5057658;28;8710;-59
2024/03/20 01:58:29;;;;;;;;;;;;;;;22.79;50.64;94290.47;5066488;28;7020;-59
2024/03/20 02:00:55;;;;;;;;;;;;;;;22.74;50.29;94293.94;5054488;28;7089;-59
2024/03/20 02:03:44;;;;;;;;;;;;;;;22.76;50.08;94296.94;5047369;28;7275;-59
2024/03/20 02:06:29;;;;;;;;;;;;;;;22.78;50.30;94293.69;5054433;28;7528;-59
2024/03/20 02:09:28;;;;;;;;;;;;;;;22.77;50.29;94294.94;5062062;28;7352;-59
2024/03/20 02:12:10;;;;;;;;;;;;;;;22.71;50.45;94283.19;5057314;28;8131;-59
2024/03/20 02:14:43;;;;;;;;;;;;;;;22.75;50.51;94298.16;5066180;28;6879;-59
2024/03/20 02:17:17;;;;;;;;;;;;;;;22.72;49.79;94288.19;5079618;28;9043;-59
2024/03/20 02:19:56;;;;;;;;;;;;;;;22.74;50.31;94304.16;5073958;28;7208;-59
2024/03/20 02:22:22;;;;;;;;;;;;;;;22.69;50.29;94294.66;5045230;28;6989;-59
2024/03/20 02:24:48;;;;;;;;;;;;;;;22.70;50.24;94295.41;5071834;28;7311;-59
2024/03/20 02:27:16;;;;;;;;;;;;;;;22.69;50.35;94299.38;5063110;28;7000;-59
2024/03/20 02:29:42;;;;;;;;;;;;;;;22.65;50.46;94293.41;5081608;28;7947;-59
2024/03/20 02:32:09;;;;;;;;;;;;;;;22.64;50.33;94289.19;5075320;28;6970;-59
2024/03/20 02:34:36;;;;;;;;;;;;;;;22.70;50.19;94303.63;5068154;28;9856;-59
2024/03/20 02:37:01;;;;;;;;;;;;;;;22.69;50.63;94308.38;5054841;28;7054;-66
2024/03/20 02:39:32;;;;;;;;;;;;;;;22.67;50.32;94305.38;5068341;28;7279;-65
2024/03/20 02:42:04;;;;;;;;;;;;;;;22.69;50.47;94310.34;5076150;28;7189;-65
2024/03/20 02:44:31;;;;;;;;;;;;;;;22.66;50.47;94311.34;5075380;28;7043;-66
2024/03/20 02:47:16;;;;;;;;;;;;;;;22.67;49.98;94316.34;5060075;28;7065;-65
2024/03/20 02:49:46;;;;;;;;;;;;;;;22.62;50.57;94310.84;5066307;28;7286;-65
2024/03/20 02:52:26;;;;;;;;;;;;;;;22.62;50.35;94316.34;5073515;28;7054;-66
2024/03/20 02:54:52;;;;;;;;;;;;;;;22.61;50.23;94318.31;5060665;28;7325;-66
2024/03/20 02:57:17;;;;;;;;;;;;;;;22.61;50.02;94323.03;5047780;28;7083;-65
2024/03/20 02:59:43;;;;;;;;;;;;;;;22.63;50.32;94329.53;5053749;28;7786;-66
2024/03/20 03:02:20;;;;;;;;;;;;;;;22.63;50.56;94335.03;5055910;28;7004;-65
2024/03/20 03:04:51;;;;;;;;;;;;;;;22.63;50.43;94337.75;5063304;28;7329;-65
2024/03/20 03:07:37;;;;;;;;;;;;;;;22.64;50.09;94338.50;5057236;28;7465;-65
2024/03/20 03:10:07;;;;;;;;;;;;;;;22.59;49.90;94331.75;5071860;28;9314;-66
2024/03/20 03:13:06;;;;;;;;;;;;;;;22.65;50.14;94343.50;5071889;28;7244;-65
2024/03/20 03:15:55;;;;;;;;;;;;;;;22.64;50.37;94344.72;5074257;28;7089;-65
2024/03/20 03:19:00;;;;;;;;;;;;;;;22.64;50.45;94347.47;5073484;28;7207;-65
2024/03/20 03:21:41;;;;;;;;;;;;;;;22.54;50.22;94340.69;5051344;28;7200;-65
2024/03/20 03:24:35;;;;;;;;;;;;;;;22.60;49.94;94348.97;5053800;28;7014;-65
2024/03/20 03:27:12;;;;;;;;;;;;;;;22.58;50.31;94334.94;5053058;28;7155;-65
2024/03/20 03:29:38;;;;;;;;;;;;;;;22.56;50.18;94342.91;5036021;28;7017;-65
2024/03/20 03:32:06;;;;;;;;;;;;;;;22.58;50.28;94356.88;5080887;28;7431;-65
2024/03/20 03:35:25;;;;;;;;;;;;;;;22.58;49.89;94356.88;5068340;28;9258;-65
2024/03/20 03:38:10;;;;;;;;;;;;;;;22.58;50.10;94362.34;4976045;28;7052;-65
2024/03/20 03:40:37;;;;;;;;;;;;;;;22.55;50.38;94364.13;4976119;28;7446;-65
2024/03/20 03:43:06;;;;;;;;;;;;;;;22.57;50.04;94363.63;4985901;28;8167;-65
2024/03/20 03:45:38;;;;;;;;;;;;;;;22.53;49.90;94361.84;4972957;28;7316;-65
2024/03/20 03:48:21;;;;;;;;;;;;;;;22.55;49.99;94360.63;4995481;28;7030;-63
2024/03/20 03:51:16;;;;;;;;;;;;;;;22.54;50.20;94362.59;4996737;28;9658;-63
2024/03/20 03:53:45;;;;;;;;;;;;;;;22.45;50.03;94354.59;4942196;28;7210;-63
2024/03/20 03:56:10;;;;;;;;;;;;;;;22.48;50.03;94365.34;4919294;29;7574;-63
2024/03/20 03:58:36;;;;;;;;;;;;;;;22.49;50.02;94363.31;4918813;29;7294;-63
2024/03/20 04:01:02;;;;;;;;;;;;;;;22.52;49.87;94376.06;4935791;28;7300;-63
2024/03/20 04:03:31;;;;;;;;;;;;;;;22.46;50.23;94364.31;4929716;28;7191;-63
2024/03/20 04:06:07;;;;;;;;;;;;;;;22.53;50.22;94374.81;4951361;28;7136;-63
2024/03/20 04:08:44;;;;;;;;;;;;;;;22.53;49.82;94377.56;4937190;29;7037;-63
2024/03/20 04:11:23;;;;;;;;;;;;;;;22.45;49.95;94371.78;4955051;28;7060;-63
2024/03/20 04:14:23;;;;;;;;;;;;;;;22.51;49.96;94382.75;4960521;28;7274;-63
2024/03/20 04:16:51;;;;;;;;;;;;;;;22.46;50.14;94383.50;4966552;28;7016;-63
2024/03/20 04:19:26;;;;;;;;;;;;;;;22.47;49.95;94391.22;4958769;28;8182;-63
2024/03/20 04:22:03;;;;;;;;;;;;;;;22.44;49.91;94381.22;4993594;28;6951;-63
2024/03/20 04:24:50;;;;;;;;;;;;;;;22.48;49.69;94392.75;4971189;28;7176;-63
2024/03/20 04:27:38;;;;;;;;;;;;;;;22.47;50.20;94390.47;4990978;28;7209;-63
2024/03/20 04:30:19;;;;;;;;;;;;;;;22.44;49.88;94389.44;5011704;28;7374;-63
2024/03/20 04:33:04;;;;;;;;;;;;;;;22.45;49.95;94387.47;5064102;28;7052;-63
2024/03/20 04:35:31;;;;;;;;;;;;;;;22.49;50.16;94393.47;5065332;28;7033;-63
2024/03/20 04:38:22;;;;;;;;;;;;;;;22.48;49.81;94400.97;5056001;28;7657;-63
2024/03/20 04:40:51;;;;;;;;;;;;;;;22.43;49.83;94385.22;5048513;28;7040;-63
2024/03/20 04:43:31;;;;;;;;;;;;;;;22.49;49.99;94387.97;5077713;28;8932;-63
2024/03/20 04:46:02;;;;;;;;;;;;;;;22.47;49.95;94390.47;5088545;28;7393;-63
2024/03/20 04:48:29;;;;;;;;;;;;;;;22.41;49.88;94378.72;5077103;28;7037;-63
2024/03/20 04:51:18;;;;;;;;;;;;;;;22.46;49.74;94384.25;5068189;28;7668;-63
2024/03/20 04:53:52;;;;;;;;;;;;;;;22.47;49.83;94390.47;5065780;28;7233;-62
2024/03/20 04:56:18;;;;;;;;;;;;;;;22.44;50.49;94388.72;5089035;28;9522;-59
2024/03/20 04:58:44;;;;;;;;;;;;;;;22.39;49.81;94384.72;5074326;28;7004;-59
2024/03/20 05:01:12;;;;;;;;;;;;;;;22.40;49.94;94390.94;5075516;28;7012;-59
2024/03/20 05:03:46;;;;;;;;;;;;;;;22.40;50.04;94396.44;5078978;28;7048;-59
2024/03/20 05:06:13;;;;;;;;;;;;;;;22.44;50.34;94402.44;5056510;28;7282;-59
2024/03/20 05:09:11;;;;;;;;;;;;;;;22.43;49.96;94398.94;5078398;28;7118;-59
2024/03/20 05:11:46;;;;;;;;;;;;;;;22.36;49.96;94399.38;5010861;28;8931;-61
2024/03/20 05:14:35;;;;;;;;;;;;;;;22.42;50.10;94415.88;5013040;28;7043;-60
2024/03/20 05:17:05;;;;;;;;;;;;;;;22.40;49.88;94408.13;5011404;28;7383;-61
2024/03/20 05:19:31;;;;;;;;;;;;;;;22.33;49.84;94396.88;4995504;28;7050;-60
2024/03/20 05:21:57;;;;;;;;;;;;;;;22.38;50.01;94402.38;5013137;28;9133;-60
2024/03/20 05:24:29;;;;;;;;;;;;;;;22.31;49.78;94391.88;4998663;28;7030;-58
2024/03/20 05:26:57;;;;;;;;;;;;;;;22.41;50.15;94403.38;5028586;28;7286;-58
2024/03/20 05:29:58;;;;;;;;;;;;;;;22.40;50.16;94415.59;5013697;28;7271;-59
2024/03/20 05:32:24;;;;;;;;;;;;;;;22.39;50.37;94414.09;4974527;28;7036;-57
2024/03/20 05:35:00;;;;;;;;;;;;;;;22.42;50.15;94416.59;4975287;28;7041;-58
2024/03/20 05:37:39;;;;;;;;;;;;;;;22.50;50.19;94420.41;4977099;28;9012;-58
2024/03/20 05:40:23;;;;;;;;;;;;;;;22.49;50.53;94416.16;4959915;28;8251;-58
2024/03/20 05:43:32;;;;;;;;;;;;;;;22.49;50.15;94415.38;4978756;28;7117;-58
2024/03/20 05:46:12;;;;;;;;;;;;;;;22.46;50.31;94417.16;4971632;28;9120;-58
2024/03/20 05:49:08;;;;;;;;;;;;;;;22.47;50.73;94424.09;5039221;28;7102;-59
2024/03/20 05:51:54;;;;;;;;;;;;;;;22.49;50.56;94424.38;5032913;28;6991;-59
2024/03/20 05:54:22;;;;;;;;;;;;;;;22.50;50.83;94427.88;5038712;28;7004;-60
2024/03/20 05:56:49;;;;;;;;;;;;;;;22.47;50.48;94418.63;5028442;28;7003;-59
2024/03/20 05:59:15;;;;;;;;;;;;;;;22.47;50.40;94420.63;5048067;28;9690;-59
2024/03/20 06:01:41;;;;;;;;;;;;;;;22.40;49.73;94413.59;5056430;28;7737;-62
2024/03/20 06:04:10;;;;;;;;;;;;;;;22.53;49.93;94421.41;5034685;28;7016;-63
2024/03/20 06:06:37;;;;;;;;;;;;;;;22.53;49.73;94426.91;5053699;28;7062;-63
2024/03/20 06:09:04;;;;;;;;;;;;;;;22.50;49.50;94423.16;5069908;28;7298;-63
2024/03/20 06:11:32;;;;;;;;;;;;;;;22.54;49.40;94433.88;5052876;28;9195;-63
2024/03/20 06:14:13;;;;;;;;;;;;;;;22.55;49.58;94429.91;5074745;28;9498;-64
2024/03/20 06:16:57;;;;;;;;;;;;;;;22.55;49.68;94438.13;5051682;28;7424;-63
2024/03/20 06:19:25;;;;;;;;;;;;;;;22.53;49.41;94424.16;5100145;28;7275;-63
2024/03/20 06:21:51;;;;;;;;;;;;;;;22.49;49.51;94416.16;5071145;28;7686;-62
2024/03/20 06:24:17;;;;;;;;;;;;;;;22.48;49.73;94419.38;5055897;28;7014;-63
2024/03/20 06:26:49;;;;;;;;;;;;;;;22.55;48.15;94435.38;5059718;28;7663;-64
2024/03/20 06:29:26;;;;;;;;;;;;;;;22.48;46.96;94438.56;5057038;28;7177;-64
2024/03/20 06:31:54;;;;;;;;;;;;;;;22.39;46.70;94428.56;5061002;28;7029;-65
2024/03/20 06:34:20;;;;;;;;;;;;;;;22.45;47.65;94439.53;5054769;28;7255;-64
2024/03/20 06:36:47;;;;;;;;;;;;;;;22.42;49.29;94438.53;5070695;28;8752;-61
2024/03/20 06:39:22;;;;;;;;;;;;;;;22.46;48.99;94435.56;5071105;28;7178;-61
2024/03/20 06:41:51;;;;;;;;;;;;;;;22.55;48.96;94443.59;5067303;28;6973;-62
2024/03/20 06:44:45;;;;;;;;;;;;;;;22.62;49.01;94448.63;5069981;28;6875;-61
2024/03/20 06:47:14;;;;;;;;;;;;;;;22.67;48.72;94447.94;4980713;28;7516;-61
2024/03/20 06:49:40;;;;;;;;;;;;;;;22.66;49.03;94435.47;4989219;28;6962;-62
2024/03/20 06:52:43;;;;;;;;;;;;;;;22.79;48.92;94449.50;4986424;28;7098;-61
2024/03/20 06:55:14;;;;;;;;;;;;;;;22.84;49.15;94439.78;4928252;29;7462;-62
2024/03/20 06:57:44;;;;;;;;;;;;;;;22.89;48.88;94442.56;4934661;29;7043;-62
2024/03/20 07:00:17;;;;;;;;;;;;;;;22.96;48.92;94452.31;4945067;29;7413;-62
2024/03/20 07:02:53;;;;;;;;;;;;;;;23.08;48.44;94462.09;4953023;28;7046;-62
2024/03/20 07:05:21;;;;;;;;;;;;;;;23.16;47.98;94455.63;4947998;28;7284;-61
2024/03/20 07:08:04;;;;;;;;;;;;;;;23.26;48.35;94450.69;4951484;28;7035;-67
2024/03/20 07:10:42;;;;;;;;;;;;;;;23.37;48.41;94456.25;4949586;28;7277;-65
2024/03/20 07:13:27;;;;;;;;;;;;;;;23.48;47.43;94461.78;4953432;28;7768;-64
2024/03/20 07:16:02;;;;;;;;;;;;;;;23.58;47.49;94462.28;4935615;28;7396;-65
2024/03/20 07:18:39;;;;;;;;;;;;;;;23.68;47.37;94458.84;4937246;29;9208;-65
2024/03/20 07:21:10;;;;;;;;;;;;;;;23.78;46.89;94470.31;4945128;28;7253;-65
2024/03/20 07:23:38;;;;;;;;;;;;;;;23.86;46.70;94466.59;4965256;28;8124;-65
2024/03/20 07:26:06;;;;;;;;;;;;;;;23.96;46.96;94473.38;5034793;28;7037;-65
2024/03/20 07:28:41;;;;;;;;;;;;;;;24.03;46.27;94469.38;5028144;28;6983;-65
2024/03/20 07:31:08;;;;;;;;;;;;;;;24.09;46.11;94469.41;5087009;28;9355;-65
2024/03/20 07:33:34;;;;;;;;;;;;;;;24.10;45.63;94463.41;5091357;28;7107;-65
2024/03/20 07:36:01;;;;;;;;;;;;;;;24.14;46.16;94463.16;5062882;28;6995;-65
2024/03/20 07:38:31;;;;;;;;;;;;;;;24.16;45.60;94452.41;5088991;28;7353;-65
2024/03/20 07:40:57;;;;;;;;;;;;;;;24.22;45.70;94464.91;5054970;28;7207;-65
2024/03/20 07:43:25;;;;;;;;;;;;;;;24.28;45.93;94468.41;5073205;28;7030;-65
2024/03/20 07:46:05;;;;;;;;;;;;;;;24.29;45.82;94463.66;5058985;28;7033;-66
2024/03/20 07:48:39;;;;;;;;;;;;;;;24.33;46.03;94467.66;5057482;28;7025;-66
2024/03/20 07:51:09;;;;;;;;;;;;;;;24.36;45.34;94471.41;5074496;28;7229;-65
2024/03/20 07:53:34;;;;;;;;;;;;;;;24.33;45.28;94450.41;5068900;28;9381;-66
2024/03/20 07:56:00;;;;;;;;;;;;;;;24.36;45.32;94461.16;5054087;28;7239;-65
2024/03/20 07:58:26;;;;;;;;;;;;;;;24.35;45.06;94464.41;5059927;28;7321;-65
2024/03/20 08:00:57;;;;;;;;;;;;;;;24.39;45.65;94464.91;5073899;28;6867;-65
2024/03/20 08:03:22;;;;;;;;;;;;;;;24.35;45.16;94456.16;5055001;28;6952;-65
2024/03/20 08:05:49;;;;;;;;;;;;;;;24.42;45.56;94467.41;5060107;28;7042;-65
2024/03/20 08:08:15;;;;;;;;;;;;;;;24.41;45.04;94465.91;5077404;28;6989;-66
2024/03/20 08:10:43;;;;;;;;;;;;;;;24.44;45.51;94475.91;5060812;28;7132;-66
2024/03/20 08:13:11;;;;;;;;;;;;;;;24.43;45.20;94465.38;5070683;28;7018;-66
2024/03/20 08:15:39;;;;;;;;;;;;;;;24.42;45.56;94455.66;5040089;28;6960;-66
2024/03/20 08:18:06;;;;;;;;;;;;;;;24.43;45.29;94449.66;5073378;28;7098;-61
2024/03/20 08:20:35;;;;;;;;;;;;;;;24.44;45.28;94453.91;5062441;28;6909;-61
2024/03/20 08:23:05;;;;;;;;;;;;;;;24.44;45.03;94453.91;5068713;28;7050;-61
2024/03/20 08:25:32;;;;;;;;;;;;;;;24.47;45.46;94461.13;5067932;28;7814;-61
2024/03/20 08:28:00;;;;;;;;;;;;;;;24.53;45.50;94458.41;5072938;28;7056;-61
2024/03/20 08:30:29;;;;;;;;;;;;;;;24.52;45.31;94463.16;5070959;28;8108;-61
2024/03/20 08:32:57;;;;;;;;;;;;;;;24.48;45.49;94456.41;5054790;28;7034;-62
2024/03/20 08:35:22;;;;;;;;;;;;;;;24.54;45.79;94457.13;5056014;28;7283;-61
2024/03/20 08:37:48;;;;;;;;;;;;;;;24.49;45.93;94453.13;5052648;28;7033;-61
2024/03/20 08:40:17;;;;;;;;;;;;;;;24.51;45.72;94453.38;5070295;28;7238;-61
2024/03/20 08:42:48;;;;;;;;;;;;;;;24.51;45.43;94456.13;5070882;28;7024;-61
2024/03/20 08:45:14;;;;;;;;;;;;;;;24.51;45.20;94458.88;5069741;28;7144;-61
2024/03/20 08:47:42;;;;;;;;;;;;;;;24.50;45.28;94456.66;5071503;28;7031;-61
2024/03/20 08:50:09;;;;;;;;;;;;;;;24.56;45.11;94458.13;5061061;28;7061;-61
2024/03/20 08:52:40;;;;;;;;;;;;;;;24.51;45.48;94456.13;5051111;28;8744;-62
2024/03/20 08:55:06;;;;;;;;;;;;;;;24.58;45.24;94458.38;5063205;28;7058;-61
2024/03/20 08:57:32;;;;;;;;;;;;;;;24.55;44.61;94451.16;5079643;28;7040;-61
2024/03/20 09:00:00;;;;;;;;;;;;;;;24.57;45.52;94462.41;5078985;28;7024;-61
2024/03/20 09:02:30;;;;;;;;;;;;;;;24.59;45.34;94462.63;5052900;28;9569;-61
2024/03/20 09:05:02;;;;;;;;;;;;;;;24.56;44.97;94466.38;5055851;28;9421;-61
2024/03/20 09:07:30;;;;;;;;;;;;;;;24.62;45.55;94464.38;5051869;28;8903;-61
2024/03/20 09:09:57;;;;;;;;;;;;;;;24.62;45.01;94458.88;5059716;28;8905;-61
2024/03/20 09:12:24;;;;;;;;;;;;;;;24.60;45.17;94458.63;5077159;28;9439;-61
2024/03/20 09:14:52;;;;;;;;;;;;;;;24.60;45.24;94457.88;5051741;28;9108;-61
2024/03/20 09:17:21;;;;;;;;;;;;;;;24.60;45.17;94453.13;5070873;28;9164;-61
2024/03/20 09:19:47;;;;;;;;;;;;;;;24.57;45.10;94451.41;5060630;28;9119;-61
2024/03/20 09:22:14;;;;;;;;;;;;;;;24.52;45.36;94449.41;5059624;28;9822;-61
2024/03/20 09:24:40;;;;;;;;;;;;;;;24.54;45.25;94457.13;5064836;28;7200;-61
2024/03/20 09:27:06;;;;;;;;;;;;;;;24.52;45.59;94452.16;5069024;28;9113;-60
2024/03/20 09:29:32;;;;;;;;;;;;;;;24.48;45.78;94448.91;5060795;28;7221;-59
2024/03/20 09:31:59;;;;;;;;;;;;;;;24.45;45.66;94446.41;5062850;28;8854;-59
2024/03/20 09:34:26;;;;;;;;;;;;;;;24.40;45.55;94447.16;5062694;28;9383;-60
2024/03/20 09:36:56;;;;;;;;;;;;;;;24.33;45.88;94444.91;5058938;28;8815;-59
2024/03/20 09:39:24;;;;;;;;;;;;;;;24.28;45.88;94440.16;5077074;28;9090;-59
2024/03/20 09:41:51;;;;;;;;;;;;;;;24.22;46.17;94442.94;5055495;28;9033;-59
2024/03/20 09:44:18;;;;;;;;;;;;;;;24.16;46.26;94433.94;5075836;28;7046;-60
2024/03/20 09:46:48;;;;;;;;;;;;;;;24.10;46.19;94433.16;5058962;28;8915;-61
2024/03/20 09:49:19;;;;;;;;;;;;;;;24.12;46.70;94433.41;5053057;28;7157;-61
2024/03/20 09:51:53;;;;;;;;;;;;;;;24.11;45.79;94436.69;5039658;28;9540;-61
2024/03/20 09:54:27;;;;;;;;;;;;;;;24.05;46.60;94433.94;5047310;28;7021;-61
2024/03/20 09:56:56;;;;;;;;;;;;;;;24.03;46.50;94433.66;5079529;28;7392;-60
2024/03/20 09:59:24;;;;;;;;;;;;;;;24.01;46.54;94427.91;5085417;28;9034;-61
2024/03/20 10:02:01;;;;;;;;;;;;;;;23.94;46.72;94428.41;5061026;28;9082;-61
2024/03/20 10:04:36;;;;;;;;;;;;;;;23.89;46.80;94426.41;5056472;28;8695;-61
2024/03/20 10:07:15;;;;;;;;;;;;;;;23.83;46.77;94436.63;5055722;28;8220;-60
2024/03/20 10:09:45;;;;;;;;;;;;;;;23.79;47.05;94433.38;5052156;28;9420;-61
2024/03/20 10:12:20;;;;;;;;;;;;;;;23.73;47.35;94433.38;5057353;28;7160;-61
2024/03/20 10:14:47;;;;;;;;;;;;;;;23.65;47.02;94426.13;5066110;28;9418;-60
2024/03/20 10:17:16;;;;;;;;;;;;;;;23.64;47.28;94427.38;5047798;28;9341;-61
2024/03/20 10:19:59;;;;;;;;;;;;;;;23.61;47.65;94428.38;5055354;28;9092;-60
2024/03/20 10:22:27;;;;;;;;;;;;;;;23.54;47.88;94423.34;5044692;28;9346;-61
2024/03/20 10:24:55;;;;;;;;;;;;;;;23.53;48.37;94419.13;5076604;28;8667;-61
2024/03/20 10:27:22;;;;;;;;;;;;;;;23.50;48.39;94422.84;5052021;28;9444;-61
2024/03/20 10:29:53;;;;;;;;;;;;;;;23.49;48.26;94418.63;5072056;28;8677;-61
2024/03/20 10:32:20;;;;;;;;;;;;;;;23.49;48.57;94418.63;5055308;28;9030;-60
2024/03/20 10:35:13;;;;;;;;;;;;;;;23.41;48.57;94414.84;5076464;28;8986;-60
2024/03/20 10:37:43;;;;;;;;;;;;;;;23.45;48.97;94415.34;5044530;28;9068;-60
2024/03/20 10:40:20;;;;;;;;;;;;;;;23.42;48.93;94410.84;5093254;28;8787;-60
2024/03/20 10:43:18;;;;;;;;;;;;;;;23.42;48.78;94417.09;5045166;28;9026;-61
2024/03/20 10:45:45;;;;;;;;;;;;;;;23.39;48.54;94415.34;4995782;28;9075;-60
2024/03/20 10:48:24;;;;;;;;;;;;;;;23.38;48.92;94415.84;5035235;28;9400;-62
2024/03/20 10:50:52;;;;;;;;;;;;;;;23.35;48.73;94411.34;5019632;28;9289;-62
2024/03/20 10:53:23;;;;;;;;;;;;;;;23.38;48.49;94415.84;5009996;28;8931;-62
2024/03/20 10:55:52;;;;;;;;;;;;;;;23.35;48.96;94419.56;5015667;28;8661;-62
2024/03/20 10:58:19;;;;;;;;;;;;;;;23.34;49.19;94407.84;5039048;28;9045;-62
2024/03/20 11:00:47;;;;;;;;;;;;;;;23.32;48.79;94404.06;5020426;28;9191;-62
2024/03/20 11:03:52;;;;;;;;;;;;;;;23.36;49.17;94413.56;5029516;28;9016;-62
2024/03/20 11:06:31;;;;;;;;;;;;;;;23.31;48.35;94405.31;5020746;28;8591;-62
2024/03/20 11:09:02;;;;;;;;;;;;;;;23.37;48.67;94420.56;5015015;28;9279;-61
2024/03/20 11:11:45;;;;;;;;;;;;;;;23.34;47.76;94416.06;5032091;28;8788;-62
2024/03/20 11:14:44;;;;;;;;;;;;;;;23.35;48.27;94411.34;5039624;28;7314;-61
2024/03/20 11:17:13;;;;;;;;;;;;;;;23.34;48.14;94412.59;5018002;28;6856;-62
2024/03/20 11:19:51;;;;;;;;;;;;;;;23.32;48.20;94401.31;5045347;28;7104;-62
2024/03/20 11:22:32;;;;;;;;;;;;;;;23.36;48.16;94413.56;5068863;28;9031;-62
2024/03/20 11:25:00;;;;;;;;;;;;;;;23.39;47.90;94411.84;5056725;28;9141;-62
2024/03/20 11:28:05;;;;;;;;;;;;;;;23.41;48.25;94409.34;5040789;28;8929;-63
2024/03/20 11:30:56;;;;;;;;;;;;;;;23.42;47.96;94413.59;5043466;28;9535;-62
2024/03/20 11:33:24;;;;;;;;;;;;;;;23.42;48.15;94417.09;5056170;28;9865;-62
2024/03/20 11:35:57;;;;;;;;;;;;;;;23.43;48.26;94412.34;5059747;28;9280;-63
2024/03/20 11:38:29;;;;;;;;;;;;;;;23.44;48.04;94414.63;5049850;28;8882;-62
2024/03/20 11:41:32;;;;;;;;;;;;;;;23.46;46.36;94416.84;5051595;28;9561;-59
2024/03/20 11:44:05;;;;;;;;;;;;;;;23.45;45.91;94416.09;5066097;28;6936;-60
2024/03/20 11:46:48;;;;;;;;;;;;;;;23.46;47.27;94416.84;5055124;28;9201;-63
2024/03/20 11:49:15;;;;;;;;;;;;;;;23.47;48.34;94413.59;5062932;28;8967;-63
2024/03/20 11:52:08;;;;;;;;;;;;;;;23.57;50.00;94416.88;5058555;28;9164;-63
2024/03/20 11:54:53;;;;;;;;;;;;;;;23.73;62.15;94438.09;5047481;28;8618;-63
2024/03/20 11:57:20;;;;;;;;;;;;;;;24.15;66.81;94426.94;5039497;28;9174;-63
2024/03/20 11:59:46;;;;;;;;;;;;;;;24.54;66.22;94427.66;5059977;28;8697;-63
2024/03/20 12:02:24;;;;;;;;;;;;;;;24.91;66.29;94421.06;5060166;28;7426;-61
2024/03/20 12:05:26;;;;;;;;;;;;;;;25.24;65.62;94418.94;5057724;28;8270;-62
2024/03/20 12:08:14;;;;;;;;;;;;;;;25.48;63.49;94415.59;4958501;28;7542;-65
2024/03/20 12:10:42;;;;;;;;;;;;;;;25.53;51.17;94423.09;4953072;28;8734;-65
2024/03/20 12:13:27;;;;;;;;;;;;;;;25.52;49.33;94418.06;4974133;28;9073;-65
2024/03/20 12:15:53;;;;;;;;;;;;;;;25.53;48.87;94423.09;4968979;28;9518;-64
2024/03/20 12:18:28;;;;;;;;;;;;;;;25.57;49.61;94426.31;4958235;28;9343;-65
2024/03/20 12:21:04;;;;;;;;;;;;;;;25.59;47.61;94415.53;4958268;28;9444;-65
2024/03/20 12:23:35;;;;;;;;;;;;;;;25.61;47.74;94423.28;4964705;28;7039;-65
2024/03/20 12:26:05;;;;;;;;;;;;;;;25.63;46.84;94427.03;4972168;28;8986;-66
2024/03/20 12:28:42;;;;;;;;;;;;;;;25.65;45.58;94421.00;4972865;28;9521;-65
2024/03/20 12:31:13;;;;;;;;;;;;;;;25.65;45.48;94423.75;4968596;28;9559;-63
2024/03/20 12:34:15;;;;;;;;;;;;;;;25.66;44.72;94423.25;4966941;28;9269;-65
2024/03/20 12:36:46;;;;;;;;;;;;;;;25.69;44.57;94432.47;4955340;28;9524;-65
2024/03/20 12:39:14;;;;;;;;;;;;;;;25.66;44.33;94420.50;4966844;28;8796;-64
2024/03/20 12:42:18;;;;;;;;;;;;;;;25.72;43.89;94426.72;4970572;28;8652;-64
2024/03/20 12:45:31;;;;;;;;;;;;;;;25.75;43.72;94427.72;5007441;28;6993;-64
2024/03/20 12:47:58;;;;;;;;;;;;;;;25.78;43.70;94426.66;4975385;28;9067;-65
2024/03/20 12:50:24;;;;;;;;;;;;;;;25.79;44.23;94431.69;4994694;28;7206;-66
2024/03/20 12:53:04;;;;;;;;;;;;;;;25.82;44.16;94427.13;4992677;28;7100;-65
2024/03/20 12:55:30;;;;;;;;;;;;;;;25.69;44.64;94421.47;4971663;28;8988;-65
2024/03/20 12:57:56;;;;;;;;;;;;;;;25.28;45.02;94418.66;4974764;28;8661;-60
2024/03/20 13:00:23;;;;;;;;;;;;;;;24.96;45.34;94418.31;4981898;28;8594;-59
2024/03/20 13:03:14;;;;;;;;;;;;;;;24.69;45.57;94413.59;4987799;28;8753;-59
2024/03/20 13:06:13;;;;;;;;;;;;;;;24.46;45.38;94418.41;4983698;28;8940;-60
2024/03/20 13:08:40;;;;;;;;;;;;;;;24.30;45.90;94419.19;4904817;29;8701;-59
2024/03/20 13:11:12;;;;;;;;;;;;;;;24.18;46.31;94414.19;4920239;29;9128;-59
2024/03/20 13:14:17;;;;;;;;;;;;;;;24.13;46.18;94418.44;4926015;29;7587;-60
2024/03/20 13:16:49;;;;;;;;;;;;;;;24.02;46.44;94404.69;4893555;29;9560;-59
2024/03/20 13:19:40;;;;;;;;;;;;;;;24.00;46.47;94415.41;4896652;29;7113;-59
2024/03/20 13:22:38;;;;;;;;;;;;;;;23.98;46.30;94410.44;4913136;29;7306;-59
2024/03/20 13:25:18;;;;;;;;;;;;;;;23.89;46.25;94410.69;4922124;28;9041;-59
2024/03/20 13:28:07;;;;;;;;;;;;;;;23.87;46.51;94417.91;4965509;28;9400;-59
2024/03/20 13:30:49;;;;;;;;;;;;;;;23.84;46.45;94410.66;4934271;28;8882;-58
2024/03/20 13:33:24;;;;;;;;;;;;;;;23.81;45.95;94411.66;4954922;28;9043;-59
2024/03/20 13:35:52;;;;;;;;;;;;;;;23.78;46.71;94410.66;4932487;28;8871;-59
2024/03/20 13:38:19;;;;;;;;;;;;;;;23.74;45.96;94406.66;4940223;28;9490;-59
2024/03/20 13:41:01;;;;;;;;;;;;;;;23.69;46.66;94408.16;4941947;28;9140;-59